Time;durP1;ratioP1;P1;durP2;ratioP2;P2;SDS_P1;SDS_P2;PMS_P1;PMS_P2;Temp;Humidity;BMP_temperature;BMP_pressure;BME280_temperature;BME280_humidity;BME280_pressure;Samples;Min_cycle;Max_cycle;Signal;HPM_P1;HPM_P2
2023/12/17 00:00:11;;;;;;;505.80;451.92;;;27.70;99.90;;;;;;5054534;28;20016;-66
2023/12/17 00:02:37;;;;;;;516.30;461.08;;;27.70;99.90;;;;;;5054532;28;20088;-67
2023/12/17 00:05:04;;;;;;;494.02;441.45;;;27.70;99.90;;;;;;5054695;28;20048;-67
2023/12/17 00:07:31;;;;;;;466.10;416.98;;;27.70;99.90;;;;;;5054395;28;20025;-66
2023/12/17 00:09:57;;;;;;;486.70;434.98;;;27.60;99.90;;;;;;5052015;28;20029;-67
2023/12/17 00:12:24;;;;;;;534.47;478.58;;;27.60;99.90;;;;;;5053955;28;20025;-67
2023/12/17 00:14:50;;;;;;;516.70;461.80;;;27.70;99.90;;;;;;5054402;28;20421;-67
2023/12/17 00:17:17;;;;;;;510.67;456.60;;;27.70;99.90;;;;;;5054157;28;20379;-66
2023/12/17 00:19:44;;;;;;;486.52;434.55;;;27.70;99.90;;;;;;5054094;28;20025;-67
2023/12/17 00:22:10;;;;;;;469.35;419.60;;;27.70;99.90;;;;;;5054228;28;20020;-67
2023/12/17 00:24:37;;;;;;;494.90;442.52;;;27.80;99.90;;;;;;5053940;28;20053;-67
2023/12/17 00:27:03;;;;;;;491.80;440.08;;;27.80;99.90;;;;;;5054013;28;20029;-67
2023/12/17 00:29:30;;;;;;;495.52;442.88;;;27.90;99.90;;;;;;5054096;28;20021;-68
2023/12/17 00:31:56;;;;;;;483.98;432.95;;;27.90;99.90;;;;;;5053919;28;20017;-66
2023/12/17 00:34:23;;;;;;;499.95;447.33;;;28.00;99.90;;;;;;5054167;28;20025;-66
2023/12/17 00:36:49;;;;;;;491.17;439.55;;;28.10;99.90;;;;;;5053336;28;20021;-68
2023/12/17 00:39:16;;;;;;;486.58;435.50;;;28.00;99.90;;;;;;5053185;28;20020;-68
2023/12/17 00:41:42;;;;;;;478.15;427.85;;;28.10;99.90;;;;;;5053447;28;20045;-64
2023/12/17 00:44:09;;;;;;;483.67;432.98;;;28.00;99.90;;;;;;5053513;28;20067;-65
2023/12/17 00:46:35;;;;;;;501.58;448.65;;;28.10;99.90;;;;;;5050683;28;20062;-64
2023/12/17 00:49:01;;;;;;;480.45;429.55;;;28.00;99.90;;;;;;5052530;28;20048;-65
2023/12/17 00:51:28;;;;;;;505.40;452.08;;;28.10;99.90;;;;;;5053301;28;20375;-66
2023/12/17 00:53:54;;;;;;;520.78;465.50;;;28.10;99.90;;;;;;5053274;28;20050;-64
2023/12/17 00:56:21;;;;;;;499.80;446.92;;;28.10;99.90;;;;;;5053118;28;20068;-65
2023/12/17 00:58:47;;;;;;;521.33;466.40;;;28.20;99.90;;;;;;5053363;28;20028;-64
2023/12/17 01:01:14;;;;;;;514.97;460.08;;;28.10;99.90;;;;;;5053450;28;20107;-64
2023/12/17 01:03:40;;;;;;;526.35;470.95;;;28.10;99.90;;;;;;5053272;28;20084;-64
2023/12/17 01:06:07;;;;;;;521.08;465.13;;;28.10;99.90;;;;;;5053403;28;20016;-65
2023/12/17 01:08:33;;;;;;;501.55;448.65;;;28.20;99.90;;;;;;5053342;28;20060;-65
2023/12/17 01:11:00;;;;;;;518.53;463.65;;;28.20;99.90;;;;;;5053092;28;20040;-70
2023/12/17 01:13:26;;;;;;;500.00;447.00;;;28.20;99.90;;;;;;5053204;28;20033;-66
2023/12/17 01:15:53;;;;;;;527.50;472.35;;;28.30;99.90;;;;;;5053267;28;20039;-65
2023/12/17 01:18:19;;;;;;;500.92;447.05;;;28.30;99.90;;;;;;5052651;28;20167;-66
2023/12/17 01:20:45;;;;;;;510.73;456.65;;;28.20;99.90;;;;;;5050970;28;20067;-63
2023/12/17 01:23:12;;;;;;;523.63;468.10;;;28.30;99.90;;;;;;5052917;28;20017;-64
2023/12/17 01:25:39;;;;;;;504.27;450.83;;;28.30;99.90;;;;;;5053015;28;20107;-64
2023/12/17 01:28:05;;;;;;;521.10;466.00;;;28.20;99.90;;;;;;5052688;28;20021;-65
2023/12/17 01:30:32;;;;;;;522.17;467.13;;;28.20;99.90;;;;;;5052662;28;20028;-66
2023/12/17 01:32:58;;;;;;;514.50;459.88;;;28.20;99.90;;;;;;5052649;28;20024;-66
2023/12/17 01:35:25;;;;;;;544.50;485.40;;;28.20;99.90;;;;;;5052380;28;20032;-66
2023/12/17 01:37:51;;;;;;;514.40;458.90;;;28.20;99.90;;;;;;5052486;28;20104;-65
2023/12/17 01:40:18;;;;;;;518.35;462.55;;;28.20;99.90;;;;;;5052461;28;20103;-63
2023/12/17 01:42:44;;;;;;;508.48;453.75;;;28.20;99.90;;;;;;5052570;28;20024;-64
2023/12/17 01:45:11;;;;;;;481.48;429.83;;;28.20;99.90;;;;;;5052850;28;20025;-65
2023/12/17 01:47:37;;;;;;;475.85;425.10;;;28.30;99.90;;;;;;5049698;28;20037;-65
2023/12/17 01:50:05;;;;;;;498.58;445.50;;;28.30;99.90;;;;;;5050161;28;20403;-64
2023/12/17 01:52:31;;;;;;;492.83;440.38;;;28.30;99.90;;;;;;5050502;28;20062;-64
2023/12/17 01:54:58;;;;;;;477.05;426.08;;;28.40;99.90;;;;;;5053137;28;20025;-65
2023/12/17 01:57:25;;;;;;;464.58;414.75;;;28.40;99.90;;;;;;5052657;28;21561;-66
2023/12/17 01:59:51;;;;;;;479.35;428.40;;;28.50;99.90;;;;;;5053698;28;20033;-65
2023/12/17 02:02:18;;;;;;;469.48;419.33;;;28.50;99.90;;;;;;5056534;28;20021;-65
2023/12/17 02:04:45;;;;;;;472.27;422.73;;;28.60;99.90;;;;;;5055911;28;20021;-65
2023/12/17 02:07:11;;;;;;;479.50;428.98;;;28.70;99.90;;;;;;5056380;28;20025;-65
2023/12/17 02:09:38;;;;;;;473.25;422.63;;;28.60;99.90;;;;;;5055773;28;20055;-65
2023/12/17 02:12:05;;;;;;;445.15;397.48;;;28.70;99.90;;;;;;5056101;28;20105;-65
2023/12/17 02:14:31;;;;;;;462.35;412.58;;;28.70;99.90;;;;;;5056139;28;20092;-63
2023/12/17 02:16:58;;;;;;;448.38;399.77;;;28.80;99.90;;;;;;5056293;28;20024;-64
2023/12/17 02:19:24;;;;;;;456.63;407.25;;;28.90;99.90;;;;;;5056425;28;20039;-65
2023/12/17 02:21:51;;;;;;;452.08;403.48;;;28.90;99.90;;;;;;5056266;28;20459;-64
2023/12/17 02:24:17;;;;;;;464.25;414.05;;;28.90;99.90;;;;;;5056003;28;20013;-65
2023/12/17 02:26:44;;;;;;;488.00;436.30;;;28.90;99.90;;;;;;5055377;28;20033;-66
2023/12/17 02:29:10;;;;;;;492.58;439.13;;;28.90;99.90;;;;;;5056024;28;20438;-67
2023/12/17 02:31:37;;;;;;;451.05;402.67;;;28.90;99.90;;;;;;5055988;28;20021;-67
2023/12/17 02:34:03;;;;;;;492.35;440.63;;;28.90;99.90;;;;;;5055943;28;20372;-64
2023/12/17 02:36:30;;;;;;;564.78;505.88;;;28.90;99.90;;;;;;5056242;28;20056;-66
2023/12/17 02:38:56;;;;;;;619.03;555.88;;;29.00;99.90;;;;;;5055633;28;20036;-64
2023/12/17 02:41:23;;;;;;;568.78;508.85;;;28.90;99.90;;;;;;5055661;28;20021;-65
2023/12/17 02:43:50;;;;;;;586.72;525.22;;;29.00;99.90;;;;;;5055604;28;20033;-65
2023/12/17 02:46:16;;;;;;;574.67;514.75;;;29.10;99.90;;;;;;5055900;28;20104;-65
2023/12/17 02:48:43;;;;;;;666.30;599.70;;;29.10;99.90;;;;;;5055265;28;20045;-65
2023/12/17 02:51:09;;;;;;;814.88;733.17;;;29.20;99.90;;;;;;5055578;28;20044;-66
2023/12/17 02:53:35;;;;;;;668.38;602.08;;;29.20;99.90;;;;;;5055588;28;20043;-66
2023/12/17 02:56:02;;;;;;;614.20;551.38;;;29.20;99.90;;;;;;5055243;28;20032;-64
2023/12/17 02:58:29;;;;;;;637.75;573.17;;;29.20;99.90;;;;;;5054383;28;20029;-65
2023/12/17 03:00:55;;;;;;;1059.05;954.17;;;29.30;99.90;;;;;;5055395;28;20499;-65
2023/12/17 03:03:22;;;;;;;655.70;589.78;;;29.30;99.90;;;;;;5055564;28;20036;-58
2023/12/17 03:05:49;;;;;;;965.22;869.50;;;29.10;99.90;;;;;;5055807;28;20029;-63
2023/12/17 03:08:15;;;;;;;807.15;728.05;;;28.90;99.90;;;;;;5055810;28;20025;-64
2023/12/17 03:10:43;;;;;;;724.53;651.63;;;28.80;99.90;;;;;;5054413;28;20024;-63
2023/12/17 03:13:09;;;;;;;697.67;627.67;;;28.70;99.90;;;;;;5055256;28;20025;-63
2023/12/17 03:15:36;;;;;;;732.92;660.42;;;28.60;99.90;;;;;;5053349;28;20028;-61
2023/12/17 03:18:03;;;;;;;709.03;638.50;;;28.60;99.90;;;;;;5045812;28;20021;-62
2023/12/17 03:20:29;;;;;;;710.90;639.90;;;28.50;99.90;;;;;;5056037;28;20036;-63
2023/12/17 03:22:56;;;;;;;887.05;798.55;;;28.50;99.90;;;;;;5055842;28;20064;-63
2023/12/17 03:25:23;;;;;;;876.85;789.38;;;28.40;99.90;;;;;;5055930;28;20025;-63
2023/12/17 03:27:49;;;;;;;766.30;689.50;;;28.50;99.90;;;;;;5055405;28;20197;-65
2023/12/17 03:30:16;;;;;;;677.97;609.75;;;28.50;99.90;;;;;;5047623;28;20051;-64
2023/12/17 03:32:42;;;;;;;619.28;556.38;;;28.60;99.90;;;;;;5055645;28;20032;-63
2023/12/17 03:35:08;;;;;;;613.45;551.58;;;28.60;99.90;;;;;;5053967;28;20031;-65
2023/12/17 03:37:35;;;;;;;522.67;468.10;;;28.60;99.90;;;;;;5051489;28;20040;-66
2023/12/17 03:40:01;;;;;;;459.30;410.42;;;28.60;99.90;;;;;;5054102;28;20037;-66
2023/12/17 03:42:28;;;;;;;462.60;413.88;;;28.70;99.90;;;;;;5055363;28;20029;-68
2023/12/17 03:44:54;;;;;;;495.80;443.90;;;28.80;99.90;;;;;;5055777;28;20471;-67
2023/12/17 03:47:21;;;;;;;520.97;467.33;;;28.80;99.90;;;;;;5055621;28;20021;-67
2023/12/17 03:49:47;;;;;;;497.80;445.35;;;28.80;99.90;;;;;;5051873;28;20029;-67
2023/12/17 03:52:14;;;;;;;522.78;468.88;;;28.80;99.90;;;;;;5053006;28;20017;-69
2023/12/17 03:54:40;;;;;;;518.40;465.13;;;28.90;99.90;;;;;;5055065;28;20017;-67
2023/12/17 03:57:07;;;;;;;602.47;540.25;;;29.00;99.90;;;;;;5055093;28;20364;-66
2023/12/17 03:59:33;;;;;;;583.97;524.50;;;29.00;99.90;;;;;;5050748;28;20021;-67
2023/12/17 04:02:02;;;;;;;664.75;599.22;;;29.00;99.90;;;;;;5053338;28;20029;-65
2023/12/17 04:04:29;;;;;;;618.53;555.58;;;29.00;99.90;;;;;;5054270;28;20025;-66
2023/12/17 04:06:56;;;;;;;561.75;505.17;;;29.00;99.90;;;;;;5054621;28;20048;-66
2023/12/17 04:09:22;;;;;;;623.53;560.42;;;29.10;99.90;;;;;;5054449;28;20023;-68
2023/12/17 04:11:49;;;;;;;703.72;633.78;;;29.10;99.90;;;;;;5054128;28;20067;-66
2023/12/17 04:14:15;;;;;;;548.03;491.75;;;29.20;99.90;;;;;;5054116;28;20033;-67
2023/12/17 04:16:41;;;;;;;550.80;493.70;;;29.20;99.90;;;;;;5054436;28;20025;-65
2023/12/17 04:19:08;;;;;;;583.72;524.55;;;29.20;99.90;;;;;;5054383;28;20543;-66
2023/12/17 04:21:34;;;;;;;706.55;637.70;;;29.30;99.90;;;;;;5054032;28;20490;-67
2023/12/17 04:24:01;;;;;;;645.88;580.97;;;29.30;99.90;;;;;;5054500;28;20160;-66
2023/12/17 04:26:27;;;;;;;598.70;538.83;;;29.30;99.90;;;;;;5054366;28;20029;-72
2023/12/17 04:28:54;;;;;;;600.50;539.67;;;29.30;99.90;;;;;;5053998;28;20021;-62
2023/12/17 04:31:20;;;;;;;629.30;566.13;;;29.40;99.90;;;;;;5053938;28;20027;-67
2023/12/17 04:33:47;;;;;;;682.47;614.38;;;29.50;99.90;;;;;;5050186;28;20096;-63
2023/12/17 04:36:13;;;;;;;592.22;532.08;;;29.50;99.90;;;;;;5051261;28;20041;-62
2023/12/17 04:38:41;;;;;;;541.70;486.50;;;29.50;99.90;;;;;;5052827;28;20028;-64
2023/12/17 04:41:08;;;;;;;543.95;488.10;;;29.60;99.90;;;;;;5051776;28;20336;-63
2023/12/17 04:43:34;;;;;;;554.25;497.23;;;29.70;99.90;;;;;;5050666;28;20021;-63
2023/12/17 04:46:01;;;;;;;487.00;435.83;;;29.80;99.90;;;;;;5049646;28;20475;-64
2023/12/17 04:48:27;;;;;;;493.80;442.88;;;29.90;99.90;;;;;;5053391;28;20040;-64
2023/12/17 04:50:54;;;;;;;478.02;427.63;;;30.00;99.90;;;;;;5053408;28;20035;-64
2023/12/17 04:53:20;;;;;;;494.67;443.60;;;30.10;99.90;;;;;;5053575;28;20025;-63
2023/12/17 04:55:46;;;;;;;509.40;456.45;;;30.20;99.90;;;;;;5050802;28;20113;-64
2023/12/17 04:58:13;;;;;;;469.17;420.08;;;30.20;99.90;;;;;;5052958;28;20021;-64
2023/12/17 05:00:40;;;;;;;510.98;458.55;;;30.30;99.90;;;;;;5053051;28;20027;-64
2023/12/17 05:03:06;;;;;;;498.13;446.27;;;30.30;99.90;;;;;;5053055;28;20509;-63
2023/12/17 05:05:33;;;;;;;494.75;443.88;;;30.40;99.90;;;;;;5052675;28;20074;-64
2023/12/17 05:08:00;;;;;;;472.65;423.08;;;30.50;99.90;;;;;;5050539;28;20475;-65
2023/12/17 05:10:27;;;;;;;489.75;438.65;;;30.60;99.90;;;;;;5051962;28;20368;-63
2023/12/17 05:12:59;;;;;;;528.63;473.92;;;30.70;99.90;;;;;;5053346;28;20138;-62
2023/12/17 05:15:25;;;;;;;580.63;521.92;;;30.80;99.90;;;;;;5050276;28;20423;-63
2023/12/17 05:17:52;;;;;;;630.95;567.65;;;30.80;99.90;;;;;;5051914;28;20057;-64
2023/12/17 05:20:18;;;;;;;585.22;525.33;;;30.90;99.90;;;;;;5052287;28;20025;-64
2023/12/17 05:22:45;;;;;;;551.63;494.75;;;31.00;99.90;;;;;;5053327;28;20062;-63
2023/12/17 05:25:11;;;;;;;673.63;607.03;;;31.10;99.90;;;;;;5035859;28;20523;-63
2023/12/17 05:27:38;;;;;;;707.38;637.80;;;31.10;99.90;;;;;;5053191;28;20117;-64
2023/12/17 05:30:05;;;;;;;581.47;522.15;;;31.20;99.90;;;;;;5053071;28;20142;-63
2023/12/17 05:32:32;;;;;;;509.50;457.23;;;31.00;99.90;;;;;;5050894;28;20401;-63
2023/12/17 05:34:59;;;;;;;462.63;414.63;;;30.90;99.90;;;;;;5050439;28;20055;-64
2023/12/17 05:37:25;;;;;;;443.27;396.33;;;30.80;99.90;;;;;;5053127;28;20051;-63
2023/12/17 05:39:52;;;;;;;487.33;436.05;;;30.80;99.90;;;;;;5053326;28;20017;-62
2023/12/17 05:42:18;;;;;;;474.08;423.95;;;30.80;99.90;;;;;;5050540;28;20064;-62
2023/12/17 05:44:45;;;;;;;485.17;434.33;;;30.80;99.90;;;;;;5053060;28;20079;-63
2023/12/17 05:47:14;;;;;;;528.65;474.52;;;30.80;99.90;;;;;;5051122;28;20024;-62
2023/12/17 05:49:40;;;;;;;529.95;475.02;;;30.80;99.90;;;;;;5051036;28;20449;-63
2023/12/17 05:52:08;;;;;;;707.08;637.58;;;30.80;99.90;;;;;;5052811;28;20104;-65
2023/12/17 05:54:34;;;;;;;456.15;408.52;;;30.90;99.90;;;;;;5051972;28;20025;-65
2023/12/17 05:57:01;;;;;;;410.13;366.85;;;30.80;99.90;;;;;;5051813;28;20064;-64
2023/12/17 05:59:28;;;;;;;422.15;378.65;;;30.90;99.90;;;;;;5052846;28;20033;-65
2023/12/17 06:01:55;;;;;;;427.00;382.42;;;30.90;99.90;;;;;;5051499;28;20035;-65
2023/12/17 06:04:21;;;;;;;375.75;337.42;;;30.90;99.90;;;;;;5052863;28;20394;-66
2023/12/17 06:06:48;;;;;;;392.83;352.70;;;30.90;99.90;;;;;;5052519;28;20020;-66
2023/12/17 06:09:14;;;;;;;399.05;357.52;;;30.90;99.90;;;;;;5052594;28;20047;-64
2023/12/17 06:11:41;;;;;;;391.45;350.80;;;30.90;99.90;;;;;;5052655;28;20510;-64
2023/12/17 06:14:11;;;;;;;376.10;337.63;;;30.90;99.90;;;;;;5053176;28;20456;-62
2023/12/17 06:16:47;;;;;;;385.23;346.27;;;30.90;99.90;;;;;;5052996;28;20112;-63
2023/12/17 06:19:13;;;;;;;395.58;355.25;;;30.90;99.90;;;;;;5053651;28;20380;-63
2023/12/17 06:21:40;;;;;;;368.00;330.75;;;30.80;99.90;;;;;;5048826;28;20100;-63
2023/12/17 06:24:07;;;;;;;360.63;324.75;;;30.80;99.90;;;;;;5050362;28;20448;-63
2023/12/17 06:26:37;;;;;;;353.95;318.25;;;30.80;99.90;;;;;;5052396;28;20088;-64
2023/12/17 06:29:03;;;;;;;356.85;320.80;;;30.80;99.90;;;;;;5048153;28;20017;-63
2023/12/17 06:31:31;;;;;;;339.48;305.73;;;30.90;99.90;;;;;;5051606;28;20052;-66
2023/12/17 06:33:57;;;;;;;357.52;321.95;;;30.90;99.90;;;;;;5052177;28;20032;-67
2023/12/17 06:36:24;;;;;;;377.80;338.67;;;30.80;99.90;;;;;;5052730;28;20028;-66
2023/12/17 06:38:50;;;;;;;369.00;331.38;;;30.80;99.90;;;;;;5052295;28;20059;-63
2023/12/17 06:41:16;;;;;;;359.13;322.85;;;30.90;99.90;;;;;;5052477;28;20029;-63
2023/12/17 06:43:43;;;;;;;373.52;335.38;;;31.00;99.90;;;;;;5050610;28;20018;-63
2023/12/17 06:46:16;;;;;;;378.23;339.63;;;31.10;99.90;;;;;;5052033;28;20112;-63
2023/12/17 06:48:43;;;;;;;391.30;351.17;;;31.00;99.90;;;;;;5053340;28;20111;-64
2023/12/17 06:51:12;;;;;;;381.45;342.40;;;31.00;99.90;;;;;;5052497;28;20029;-62
2023/12/17 06:53:38;;;;;;;398.25;356.77;;;31.10;99.90;;;;;;5051826;28;20040;-63
2023/12/17 06:56:05;;;;;;;368.92;331.67;;;31.10;99.90;;;;;;5059846;23;20066;-62
2023/12/17 06:58:33;;;;;;;394.98;354.05;;;31.10;99.90;;;;;;5068982;28;20116;-63
2023/12/17 07:00:59;;;;;;;365.65;327.92;;;31.00;99.90;;;;;;5071381;28;20425;-63
2023/12/17 07:03:26;;;;;;;384.50;345.02;;;31.10;99.90;;;;;;5075308;28;20032;-63
2023/12/17 07:05:53;;;;;;;368.10;330.48;;;31.10;99.90;;;;;;5072228;28;20027;-63
2023/12/17 07:08:19;;;;;;;361.40;324.67;;;31.00;99.90;;;;;;5075263;28;20123;-64
2023/12/17 07:10:46;;;;;;;393.42;352.60;;;31.00;99.90;;;;;;5075176;28;20105;-64
2023/12/17 07:13:13;;;;;;;387.73;347.95;;;31.00;99.90;;;;;;5075196;28;20024;-64
2023/12/17 07:15:39;;;;;;;359.73;323.00;;;31.00;99.90;;;;;;5075009;28;20060;-64
2023/12/17 07:18:05;;;;;;;365.67;328.35;;;31.00;99.90;;;;;;5075284;28;20020;-62
2023/12/17 07:20:32;;;;;;;364.00;327.00;;;31.00;99.90;;;;;;5074732;28;20064;-64
2023/12/17 07:22:58;;;;;;;378.98;339.55;;;31.00;99.90;;;;;;5073169;28;20416;-64
2023/12/17 07:25:26;;;;;;;357.17;320.92;;;31.00;99.90;;;;;;5074045;28;20016;-63
2023/12/17 07:27:54;;;;;;;370.15;332.02;;;30.90;99.90;;;;;;5074217;28;20056;-63
2023/12/17 07:30:21;;;;;;;370.38;332.10;;;30.90;99.90;;;;;;5074635;28;20474;-61
2023/12/17 07:32:47;;;;;;;367.52;330.33;;;30.90;99.90;;;;;;5075294;28;20031;-61
2023/12/17 07:35:14;;;;;;;361.60;324.90;;;30.90;99.90;;;;;;5071978;28;20035;-66
2023/12/17 07:37:41;;;;;;;384.63;344.70;;;30.90;99.90;;;;;;5075350;28;20032;-63
2023/12/17 07:40:08;;;;;;;378.35;339.70;;;30.90;99.90;;;;;;5075716;28;20082;-62
2023/12/17 07:42:34;;;;;;;386.90;346.80;;;31.00;99.90;;;;;;5069836;28;20039;-62
2023/12/17 07:45:01;;;;;;;355.50;319.70;;;30.90;99.90;;;;;;5075823;28;20046;-64
2023/12/17 07:47:30;;;;;;;358.05;322.35;;;30.90;99.90;;;;;;5092324;22;20049;-63
2023/12/17 07:49:57;;;;;;;370.33;333.00;;;31.00;99.90;;;;;;5047553;28;20029;-63
2023/12/17 07:52:24;;;;;;;356.75;320.50;;;31.00;99.90;;;;;;5041553;28;20030;-63
2023/12/17 07:54:52;;;;;;;379.52;340.50;;;31.10;99.90;;;;;;5037671;28;20044;-64
2023/12/17 07:57:19;;;;;;;383.45;343.65;;;31.10;99.90;;;;;;5054997;28;20502;-63
2023/12/17 07:59:48;;;;;;;368.15;330.42;;;31.10;99.90;;;;;;5054918;28;20075;-63
2023/12/17 08:02:15;;;;;;;401.92;360.20;;;31.20;99.90;;;;;;5055273;28;20020;-64
2023/12/17 08:04:42;;;;;;;387.13;347.65;;;31.30;99.90;;;;;;5054177;28;20375;-64
2023/12/17 08:07:10;;;;;;;368.88;331.38;;;31.30;99.90;;;;;;5054278;28;20021;-61
2023/12/17 08:09:37;;;;;;;387.50;347.60;;;31.30;99.90;;;;;;5054358;28;20033;-63
2023/12/17 08:12:03;;;;;;;379.88;340.58;;;31.30;99.90;;;;;;5051531;28;20391;-65
2023/12/17 08:14:30;;;;;;;382.73;343.45;;;31.30;99.90;;;;;;5050761;28;20479;-64
2023/12/17 08:16:56;;;;;;;389.88;349.42;;;31.30;99.90;;;;;;5049655;28;20115;-64
2023/12/17 08:19:23;;;;;;;372.77;334.52;;;31.30;99.90;;;;;;5053159;28;20021;-63
2023/12/17 08:21:49;;;;;;;373.52;335.33;;;31.30;99.90;;;;;;5053914;28;20036;-65
2023/12/17 08:24:16;;;;;;;387.92;348.27;;;31.30;99.90;;;;;;5054157;28;20064;-65
2023/12/17 08:26:42;;;;;;;373.75;335.80;;;31.20;99.90;;;;;;5051908;28;20100;-65
2023/12/17 08:29:09;;;;;;;392.95;352.17;;;31.20;99.90;;;;;;5053394;28;20025;-66
2023/12/17 08:31:35;;;;;;;407.30;364.90;;;31.30;99.90;;;;;;5053506;28;20486;-64
2023/12/17 08:34:02;;;;;;;378.65;339.88;;;31.20;99.90;;;;;;5053245;28;20033;-66
2023/12/17 08:36:28;;;;;;;380.13;341.40;;;31.10;99.90;;;;;;5053552;28;20040;-66
2023/12/17 08:38:55;;;;;;;423.20;378.30;;;31.10;99.90;;;;;;5053368;28;20353;-64
2023/12/17 08:41:22;;;;;;;415.38;372.25;;;31.00;99.90;;;;;;5053761;28;20438;-67
2023/12/17 08:43:48;;;;;;;426.13;382.02;;;31.00;99.90;;;;;;5053480;28;20056;-66
2023/12/17 08:46:16;;;;;;;431.38;385.70;;;30.90;99.90;;;;;;5053736;28;20013;-63
2023/12/17 08:48:42;;;;;;;453.25;404.90;;;30.90;99.90;;;;;;5051594;28;20048;-66
2023/12/17 08:51:09;;;;;;;487.58;436.70;;;31.00;99.90;;;;;;5053954;28;20396;-65
2023/12/17 08:53:35;;;;;;;466.88;416.92;;;30.90;99.90;;;;;;5053947;28;20021;-64
2023/12/17 08:56:03;;;;;;;638.10;573.15;;;31.00;99.90;;;;;;5053655;28;20025;-65
2023/12/17 08:58:29;;;;;;;586.88;526.97;;;30.90;99.90;;;;;;5053937;28;20399;-67
2023/12/17 09:00:56;;;;;;;599.25;538.13;;;30.90;99.90;;;;;;5053776;28;20025;-62
2023/12/17 09:03:22;;;;;;;485.10;433.88;;;30.90;99.90;;;;;;5053812;28;20391;-63
2023/12/17 09:05:49;;;;;;;445.17;398.10;;;30.90;99.90;;;;;;5054109;28;20029;-62
2023/12/17 09:08:15;;;;;;;466.67;417.67;;;30.90;99.90;;;;;;5054047;28;20025;-61
2023/12/17 09:10:42;;;;;;;499.20;447.45;;;30.90;99.90;;;;;;5054115;28;20025;-62
2023/12/17 09:13:09;;;;;;;457.85;409.38;;;30.90;99.90;;;;;;5053789;28;20071;-63
2023/12/17 09:15:43;;;;;;;455.38;408.13;;;30.90;99.90;;;;;;5054483;28;20033;-61
2023/12/17 09:18:10;;;;;;;398.05;356.10;;;30.90;99.90;;;;;;5055047;28;20029;-63
2023/12/17 09:20:36;;;;;;;392.13;351.40;;;30.90;99.90;;;;;;5055145;28;20490;-63
2023/12/17 09:23:03;;;;;;;408.20;365.77;;;30.90;99.90;;;;;;5055218;28;20383;-64
2023/12/17 09:25:29;;;;;;;406.10;363.75;;;30.90;99.90;;;;;;5054930;28;20025;-63
2023/12/17 09:27:56;;;;;;;393.45;352.08;;;30.80;99.90;;;;;;5054701;28;20032;-63
2023/12/17 09:30:22;;;;;;;406.73;364.17;;;30.80;99.90;;;;;;5054878;28;20055;-64
2023/12/17 09:32:50;;;;;;;470.48;420.50;;;30.90;99.90;;;;;;5054952;28;20029;-62
2023/12/17 09:35:19;;;;;;;505.90;453.42;;;30.80;99.90;;;;;;5054980;28;20025;-64
2023/12/17 09:37:47;;;;;;;474.15;423.55;;;30.80;99.90;;;;;;5054671;28;20063;-64
2023/12/17 09:40:15;;;;;;;478.00;428.38;;;30.80;99.90;;;;;;5054512;28;20021;-63
2023/12/17 09:42:43;;;;;;;548.15;490.50;;;30.80;99.90;;;;;;5054209;28;20037;-63
2023/12/17 09:45:14;;;;;;;513.53;459.33;;;30.80;99.90;;;;;;5054303;28;20117;-62
2023/12/17 09:47:42;;;;;;;480.85;429.80;;;30.80;99.90;;;;;;5053764;28;20049;-62
2023/12/17 09:50:10;;;;;;;529.35;474.08;;;30.80;99.90;;;;;;5054360;28;20025;-63
2023/12/17 09:52:42;;;;;;;570.50;511.45;;;30.80;99.90;;;;;;5053969;28;20029;-63
2023/12/17 09:55:10;;;;;;;575.35;515.42;;;30.80;99.90;;;;;;5053726;28;20049;-63
2023/12/17 09:57:37;;;;;;;519.83;465.60;;;30.80;99.90;;;;;;5054164;28;20096;-64
2023/12/17 10:00:09;;;;;;;569.15;510.67;;;30.90;99.90;;;;;;5053957;28;20414;-64
2023/12/17 10:02:36;;;;;;;552.28;495.88;;;30.80;99.90;;;;;;5054113;28;20388;-62
2023/12/17 10:05:04;;;;;;;541.13;484.48;;;30.70;99.90;;;;;;5051697;28;20029;-62
2023/12/17 10:07:31;;;;;;;497.73;446.05;;;30.70;99.90;;;;;;5043131;28;20056;-63
2023/12/17 10:09:57;;;;;;;547.75;489.15;;;30.60;99.90;;;;;;5034999;28;20038;-63
2023/12/17 10:12:24;;;;;;;534.47;476.23;;;30.70;99.90;;;;;;5035593;28;20072;-63
2023/12/17 10:14:52;;;;;;;464.13;413.40;;;30.70;99.90;;;;;;5035360;28;20403;-63
2023/12/17 10:17:19;;;;;;;359.67;321.60;;;30.70;99.90;;;;;;5039774;28;20473;-64
2023/12/17 10:19:55;;;;;;;403.55;360.88;;;30.70;99.90;;;;;;5056884;28;20021;-64
2023/12/17 10:22:22;;;;;;;380.17;340.33;;;30.70;99.90;;;;;;5058908;28;20052;-65
2023/12/17 10:24:49;;;;;;;367.00;329.20;;;30.60;99.90;;;;;;5058864;28;20033;-64
2023/12/17 10:27:16;;;;;;;456.48;385.75;;;30.60;99.90;;;;;;5058594;28;20049;-65
2023/12/17 10:29:47;;;;;;;438.42;375.70;;;30.60;99.90;;;;;;5058121;28;20029;-66
2023/12/17 10:32:14;;;;;;;423.13;370.43;;;30.60;99.90;;;;;;5051883;28;20052;-65
2023/12/17 10:34:41;;;;;;;573.75;451.38;;;30.50;99.90;;;;;;5040561;28;20261;-64
2023/12/17 10:37:08;;;;;;;541.58;419.95;;;30.50;99.90;;;;;;5038704;28;20408;-64
2023/12/17 10:39:35;;;;;;;436.30;380.42;;;30.60;99.90;;;;;;5038495;28;20112;-64
2023/12/17 10:42:03;;;;;;;401.35;359.20;;;30.60;99.90;;;;;;5038413;28;20064;-65
2023/12/17 10:44:30;;;;;;;374.67;335.90;;;30.60;99.90;;;;;;5038112;28;20037;-65
2023/12/17 10:47:00;;;;;;;369.65;330.90;;;30.60;99.90;;;;;;5037959;28;20032;-64
2023/12/17 10:49:27;;;;;;;355.65;319.25;;;30.50;99.90;;;;;;5038218;28;20037;-65
2023/12/17 10:51:54;;;;;;;359.27;322.40;;;30.50;99.90;;;;;;5037819;28;20114;-65
2023/12/17 10:54:21;;;;;;;386.10;346.23;;;30.50;99.90;;;;;;5038334;28;20024;-65
2023/12/17 10:56:54;;;;;;;396.13;354.35;;;30.50;99.90;;;;;;5037031;28;20030;-65
2023/12/17 10:59:26;;;;;;;405.55;362.52;;;30.50;99.90;;;;;;5051193;28;20064;-65
2023/12/17 11:01:55;;;;;;;417.40;372.38;;;30.50;99.90;;;;;;5056415;28;20095;-64
2023/12/17 11:04:23;;;;;;;426.77;380.52;;;30.40;99.90;;;;;;5049163;28;20032;-63
2023/12/17 11:06:50;;;;;;;392.00;350.60;;;30.30;99.90;;;;;;5055855;28;20138;-64
2023/12/17 11:09:17;;;;;;;411.67;368.55;;;30.30;99.90;;;;;;5055919;28;20048;-64
2023/12/17 11:11:46;;;;;;;389.92;349.35;;;30.30;99.90;;;;;;5056042;28;20104;-64
2023/12/17 11:14:13;;;;;;;400.90;359.17;;;30.40;99.90;;;;;;5056267;28;20083;-64
2023/12/17 11:16:40;;;;;;;398.52;356.08;;;30.30;99.90;;;;;;5056757;28;20041;-66
2023/12/17 11:19:08;;;;;;;405.77;363.15;;;30.30;99.90;;;;;;5057162;28;20191;-66
2023/12/17 11:21:35;;;;;;;378.35;338.10;;;30.40;99.90;;;;;;5056940;28;20074;-66
2023/12/17 11:24:02;;;;;;;392.80;351.23;;;30.30;99.90;;;;;;5080375;23;20021;-63
2023/12/17 11:26:38;;;;;;;423.35;378.00;;;30.40;99.90;;;;;;5076821;28;20044;-62
2023/12/17 11:29:34;;;;;;;424.90;379.55;;;30.30;99.90;;;;;;5076627;28;20378;-63
2023/12/17 11:32:02;;;;;;;439.35;392.48;;;30.30;99.90;;;;;;5071742;28;20024;-62
2023/12/17 11:34:30;;;;;;;416.00;371.33;;;30.40;99.90;;;;;;5067464;28;20033;-62
2023/12/17 11:37:00;;;;;;;443.85;395.95;;;30.30;99.90;;;;;;5072818;28;20382;-64
2023/12/17 11:39:28;;;;;;;448.80;401.27;;;30.30;99.90;;;;;;5075246;28;20517;-64
2023/12/17 11:41:55;;;;;;;447.98;399.63;;;30.30;99.90;;;;;;5075533;28;20060;-62
2023/12/17 11:44:22;;;;;;;458.65;408.65;;;30.30;99.90;;;;;;5075009;28;20021;-65
2023/12/17 11:46:50;;;;;;;483.38;431.77;;;30.30;99.90;;;;;;5075233;28;20099;-64
2023/12/17 11:49:26;;;;;;;497.00;443.88;;;30.20;99.90;;;;;;5075232;28;20024;-64
2023/12/17 11:51:54;;;;;;;492.15;438.48;;;30.30;99.90;;;;;;5074708;28;20055;-62
2023/12/17 11:54:22;;;;;;;502.92;449.00;;;30.20;99.90;;;;;;5072268;28;20023;-62
2023/12/17 11:56:49;;;;;;;473.30;422.90;;;30.20;99.90;;;;;;5073186;28;20056;-64
2023/12/17 11:59:31;;;;;;;459.92;410.45;;;30.20;99.90;;;;;;5074522;28;20074;-66
2023/12/17 12:01:57;;;;;;;454.05;404.85;;;30.20;99.90;;;;;;5074127;28;20021;-66
2023/12/17 12:04:24;;;;;;;463.92;413.98;;;30.10;99.90;;;;;;5073843;28;20032;-68
2023/12/17 12:06:59;;;;;;;424.35;378.50;;;30.10;99.90;;;;;;5074303;28;20017;-69